createdAt,value
2018-11-05T00:01:37.809Z,72.30
2018-11-05T00:04:05.267Z,68.87
2018-11-05T00:06:32.771Z,70.80
2018-11-05T00:09:00.205Z,69.37
2018-11-05T00:11:27.715Z,68.03
2018-11-05T00:13:55.142Z,70.63
2018-11-05T00:16:22.551Z,70.00
2018-11-05T00:18:49.947Z,76.27
2018-11-05T00:21:17.379Z,68.80
2018-11-05T00:23:44.892Z,70.37
2018-11-05T00:26:12.298Z,68.73
2018-11-05T00:28:39.735Z,68.70
2018-11-05T00:31:07.179Z,72.67
2018-11-05T00:33:34.602Z,74.10
2018-11-05T00:36:02.029Z,72.07
2018-11-05T00:38:29.458Z,73.07
2018-11-05T00:40:56.930Z,76.33
2018-11-05T00:43:24.351Z,71.17
2018-11-05T00:45:51.879Z,72.73
2018-11-05T00:48:19.231Z,66.23
2018-11-05T00:50:46.689Z,75.87
2018-11-05T00:53:14.099Z,71.87
2018-11-05T00:55:41.720Z,75.80
2018-11-05T00:58:09.187Z,74.47
2018-11-05T01:00:37.044Z,73.93
2018-11-05T01:03:04.551Z,76.73
2018-11-05T01:05:32.068Z,78.60
2018-11-05T01:07:59.671Z,77.40
2018-11-05T01:10:27.196Z,69.87
2018-11-05T01:12:54.685Z,76.23
2018-11-05T01:15:22.215Z,82.67
2018-11-05T01:17:49.805Z,75.70
2018-11-05T01:20:17.301Z,84.43
2018-11-05T01:22:44.823Z,78.43
2018-11-05T01:25:12.328Z,81.53
2018-11-05T01:27:39.769Z,84.30
2018-11-05T01:30:09.624Z,77.60
2018-11-05T01:32:37.152Z,82.77
2018-11-05T01:35:05.634Z,82.13
2018-11-05T01:37:33.046Z,94.60
2018-11-05T01:40:00.654Z,94.53
2018-11-05T01:42:28.101Z,92.07
2018-11-05T01:44:55.619Z,76.70
2018-11-05T01:47:23.072Z,88.20
2018-11-05T01:49:50.481Z,86.13
2018-11-05T01:52:17.898Z,86.80
2018-11-05T01:54:45.304Z,86.97
2018-11-05T01:57:12.738Z,83.27
2018-11-05T01:59:40.218Z,84.17
2018-11-05T02:02:08.165Z,82.23
2018-11-05T02:04:35.570Z,90.90
2018-11-05T02:07:03.008Z,80.80
2018-11-05T02:09:30.464Z,84.50
2018-11-05T02:11:58.507Z,82.30
2018-11-05T02:14:25.912Z,85.63
2018-11-05T02:16:53.355Z,88.77
2018-11-05T02:19:20.775Z,78.77
2018-11-05T02:21:48.197Z,86.90
2018-11-05T02:24:15.631Z,82.80
2018-11-05T02:26:43.056Z,84.20
2018-11-05T02:29:10.451Z,81.23
2018-11-05T02:31:38.007Z,83.80
2018-11-05T02:34:05.424Z,88.07
2018-11-05T02:36:32.842Z,84.77
2018-11-05T02:39:00.226Z,81.90
2018-11-05T02:41:27.662Z,90.57
2018-11-05T02:43:55.096Z,84.93
2018-11-05T02:46:22.514Z,90.33
2018-11-05T02:48:49.899Z,84.57
2018-11-05T02:51:17.333Z,87.67
2018-11-05T02:53:44.763Z,89.80
2018-11-05T02:56:12.191Z,86.47
2018-11-05T02:58:39.583Z,88.40
2018-11-05T03:01:07.078Z,80.17
2018-11-05T03:03:34.481Z,80.07
2018-11-05T03:06:01.918Z,76.80
2018-11-05T03:08:29.332Z,78.83
2018-11-05T03:10:56.786Z,72.60
2018-11-05T03:13:24.213Z,77.73
2018-11-05T03:15:51.647Z,80.83
2018-11-05T03:18:19.054Z,77.77
2018-11-05T03:20:46.454Z,74.63
2018-11-05T03:23:14.006Z,66.40
2018-11-05T03:25:41.396Z,86.20
2018-11-05T03:28:08.875Z,81.33
2018-11-05T03:30:36.323Z,75.43
2018-11-05T03:33:04.178Z,72.10
2018-11-05T03:35:31.668Z,73.40
2018-11-05T03:37:59.056Z,70.00
2018-11-05T03:40:26.472Z,68.27
2018-11-05T03:42:53.907Z,72.93
2018-11-05T03:45:21.417Z,69.00
2018-11-05T03:47:48.839Z,68.43
2018-11-05T03:50:17.531Z,72.47
2018-11-05T03:52:45.747Z,75.47
2018-11-05T03:55:13.974Z,65.70
2018-11-05T03:57:41.535Z,73.90
2018-11-05T04:00:10.858Z,70.57
2018-11-05T04:02:38.356Z,70.00
2018-11-05T04:05:06.179Z,70.37
2018-11-05T04:07:33.642Z,68.30
2018-11-05T04:10:01.082Z,71.57
2018-11-05T04:12:28.662Z,74.47
2018-11-05T04:14:56.118Z,74.80
2018-11-05T04:17:23.540Z,68.20
2018-11-05T04:19:50.992Z,69.37
2018-11-05T04:22:18.401Z,62.50
2018-11-05T04:24:45.803Z,66.57
2018-11-05T04:27:13.219Z,68.20
2018-11-05T04:29:40.632Z,66.77
2018-11-05T04:32:08.082Z,62.97
2018-11-05T04:34:36.146Z,63.80
2018-11-05T04:37:03.657Z,65.33
2018-11-05T04:39:31.060Z,64.90
2018-11-05T04:41:58.556Z,61.80
2018-11-05T04:44:26.935Z,58.70
2018-11-05T04:46:54.372Z,62.70
2018-11-05T04:49:21.804Z,62.50
2018-11-05T04:51:49.212Z,61.73
2018-11-05T04:54:16.632Z,62.70
2018-11-05T04:56:44.116Z,67.63
2018-11-05T04:59:11.660Z,62.23
2018-11-05T05:01:39.099Z,59.33
2018-11-05T05:04:06.524Z,62.00
2018-11-05T05:06:34.059Z,60.87
2018-11-05T05:09:01.489Z,65.63
2018-11-05T05:11:28.896Z,66.40
2018-11-05T05:13:56.319Z,61.77
2018-11-05T05:16:23.836Z,61.47
2018-11-05T05:18:53.461Z,67.70
2018-11-05T05:21:20.889Z,70.73
2018-11-05T05:23:48.328Z,64.90
2018-11-05T05:26:15.722Z,67.30
2018-11-05T05:28:43.307Z,62.57
2018-11-05T05:31:10.743Z,69.30
2018-11-05T05:33:38.284Z,66.17
2018-11-05T05:36:05.780Z,69.20
2018-11-05T05:38:33.207Z,62.23
2018-11-05T05:41:00.762Z,58.77
2018-11-05T05:43:28.072Z,66.17
2018-11-05T05:45:55.609Z,68.17
2018-11-05T05:48:23.143Z,61.80
2018-11-05T05:50:51.193Z,64.23
2018-11-05T05:53:25.264Z,60.70
2018-11-05T05:55:53.305Z,63.33
2018-11-05T05:58:20.755Z,57.73
2018-11-05T06:00:48.188Z,62.57
2018-11-05T06:03:15.622Z,63.53
2018-11-05T06:05:43.033Z,59.27
2018-11-05T06:08:10.485Z,63.67
2018-11-05T06:10:37.879Z,70.10
2018-11-05T06:13:05.447Z,62.37
2018-11-05T06:15:32.856Z,65.20
2018-11-05T06:18:00.283Z,64.60
2018-11-05T06:20:27.786Z,69.03
2018-11-05T06:22:55.241Z,70.23
2018-11-05T06:25:22.659Z,67.87
2018-11-05T06:27:50.272Z,66.90
2018-11-05T06:30:18.782Z,68.47
2018-11-05T06:32:47.019Z,68.43
2018-11-05T06:35:14.503Z,70.13
2018-11-05T06:37:42.017Z,78.30
2018-11-05T06:40:11.580Z,63.83
2018-11-05T06:42:39.079Z,70.93
2018-11-05T06:45:09.083Z,62.50
2018-11-05T06:47:37.190Z,73.37
2018-11-05T06:50:07.454Z,73.70
2018-11-05T06:52:35.059Z,77.60
2018-11-05T06:55:02.538Z,68.00
2018-11-05T06:57:30.039Z,69.83
2018-11-05T06:59:57.422Z,67.40
2018-11-05T07:02:24.931Z,68.13
2018-11-05T07:04:52.369Z,69.80
2018-11-05T07:07:19.790Z,73.87
2018-11-05T07:09:47.281Z,73.30
2018-11-05T07:12:14.695Z,68.80
2018-11-05T07:14:42.136Z,70.10
2018-11-05T07:17:09.563Z,64.47
2018-11-05T07:19:37.077Z,59.77
2018-11-05T07:22:04.552Z,66.40
2018-11-05T07:24:32.111Z,69.73
2018-11-05T07:26:59.527Z,70.20
2018-11-05T07:29:26.980Z,67.10
2018-11-05T07:31:54.396Z,67.60
2018-11-05T07:34:21.904Z,59.80
2018-11-05T07:36:49.260Z,66.80
2018-11-05T07:39:16.730Z,69.33
2018-11-05T07:41:44.126Z,62.07
2018-11-05T07:44:11.548Z,64.67
2018-11-05T07:46:39.113Z,71.13
2018-11-05T07:49:06.582Z,68.50
2018-11-05T07:51:34.427Z,62.70
2018-11-05T07:54:01.847Z,68.63
2018-11-05T07:56:29.233Z,72.57
2018-11-05T07:58:56.674Z,70.17
2018-11-05T08:01:24.105Z,67.70
2018-11-05T08:03:51.711Z,67.63
2018-11-05T08:06:19.116Z,71.37
2018-11-05T08:08:46.521Z,73.07
2018-11-05T08:11:13.940Z,65.50
2018-11-05T08:13:41.340Z,71.87
2018-11-05T08:16:08.766Z,66.83
2018-11-05T08:18:36.183Z,70.17
2018-11-05T08:21:03.876Z,67.00
2018-11-05T08:23:31.759Z,72.60
2018-11-05T08:25:59.183Z,73.90
2018-11-05T08:28:26.598Z,73.30
2018-11-05T08:30:54.050Z,74.40
2018-11-05T08:33:21.445Z,70.77
2018-11-05T08:35:48.895Z,73.90
2018-11-05T08:38:16.295Z,74.60
2018-11-05T08:40:43.761Z,82.27
2018-11-05T08:43:11.158Z,71.80
2018-11-05T08:45:38.665Z,76.83
2018-11-05T08:48:06.089Z,74.87
2018-11-05T08:50:33.559Z,75.43
2018-11-05T08:53:01.538Z,79.80
2018-11-05T08:55:28.978Z,77.77
2018-11-05T08:57:56.459Z,75.87
2018-11-05T09:01:32.736Z,73.53
2018-11-05T09:04:00.736Z,72.90
2018-11-05T09:06:28.202Z,76.13
2018-11-05T09:08:56.674Z,75.13
2018-11-05T09:11:24.694Z,81.93
2018-11-05T09:13:55.583Z,76.17
2018-11-05T09:16:23.119Z,86.43
2018-11-05T09:18:50.630Z,80.23
2018-11-05T09:21:18.058Z,83.70
2018-11-05T09:23:45.702Z,89.60
2018-11-05T09:26:13.147Z,84.57
2018-11-05T09:28:40.557Z,78.90
2018-11-05T09:31:08.021Z,84.57
2018-11-05T09:33:35.414Z,85.40
2018-11-05T09:36:02.906Z,85.90
2018-11-05T09:38:30.295Z,84.90
2018-11-05T09:40:57.752Z,82.17
2018-11-05T09:43:25.163Z,88.10
2018-11-05T09:45:52.652Z,86.83
2018-11-05T09:48:20.064Z,89.33
2018-11-05T09:50:47.551Z,95.40
2018-11-05T09:53:14.924Z,89.67
2018-11-05T09:55:42.347Z,87.10
2018-11-05T09:58:09.741Z,96.13
2018-11-05T10:00:39.211Z,96.27
2018-11-05T10:03:12.560Z,100.63
2018-11-05T10:05:39.964Z,95.00
2018-11-05T10:08:07.400Z,101.80
2018-11-05T10:10:34.931Z,96.33
2018-11-05T10:13:02.352Z,100.77
2018-11-05T10:15:30.439Z,101.00
2018-11-05T10:17:57.852Z,93.10
2018-11-05T10:20:25.408Z,105.83
2018-11-05T10:22:52.844Z,110.70
2018-11-05T10:25:21.286Z,102.40
2018-11-05T10:27:49.501Z,106.97
2018-11-05T10:30:21.302Z,111.00
2018-11-05T10:32:48.775Z,105.40
2018-11-05T10:35:16.712Z,105.30
2018-11-05T10:37:44.116Z,107.00
2018-11-05T10:40:14.655Z,103.20
2018-11-05T10:42:42.766Z,91.50
2018-11-05T10:45:11.634Z,89.83
2018-11-05T10:47:39.075Z,99.63
2018-11-05T10:50:07.292Z,98.67
2018-11-05T10:52:35.084Z,97.47
2018-11-05T10:55:02.516Z,100.03
2018-11-05T10:57:30.052Z,92.73
2018-11-05T10:59:57.511Z,100.90
2018-11-05T11:02:30.711Z,95.93
2018-11-05T11:04:58.115Z,102.57
2018-11-05T11:07:25.566Z,95.50
2018-11-05T11:09:53.877Z,94.60
2018-11-05T11:12:21.325Z,105.83
2018-11-05T11:14:48.820Z,102.33
2018-11-05T11:17:16.230Z,93.73
2018-11-05T11:19:43.684Z,88.90
2018-11-05T11:22:11.191Z,86.90
2018-11-05T11:24:38.627Z,98.53
2018-11-05T11:27:06.082Z,96.30
2018-11-05T11:29:33.488Z,96.37
2018-11-05T11:32:00.910Z,88.77
2018-11-05T11:34:28.432Z,93.67
2018-11-05T11:36:55.929Z,84.83
2018-11-05T11:39:23.294Z,89.33
2018-11-05T11:41:50.729Z,85.53
2018-11-05T11:44:18.270Z,86.43
2018-11-05T11:46:45.629Z,84.67
2018-11-05T11:49:13.047Z,84.67
2018-11-05T11:51:40.470Z,89.60
2018-11-05T11:54:07.926Z,86.97
2018-11-05T11:56:35.417Z,84.33
2018-11-05T11:59:03.057Z,85.73
2018-11-05T12:01:35.234Z,79.20
2018-11-05T12:04:02.659Z,81.57
2018-11-05T12:06:30.115Z,82.87
2018-11-05T12:08:57.535Z,83.73
2018-11-05T12:11:24.931Z,79.73
2018-11-05T12:13:52.426Z,83.07
2018-11-05T12:16:19.843Z,79.67
2018-11-05T12:18:47.320Z,85.37
2018-11-05T12:21:14.725Z,86.10
2018-11-05T12:23:42.162Z,82.80
2018-11-05T12:26:09.615Z,77.10
2018-11-05T12:28:37.067Z,79.43
2018-11-05T12:31:04.999Z,79.53
2018-11-05T12:33:32.418Z,80.87
2018-11-05T12:35:59.823Z,79.03
2018-11-05T12:38:27.264Z,78.33
2018-11-05T12:40:54.665Z,80.90
2018-11-05T12:43:22.072Z,74.47
2018-11-05T12:45:49.477Z,77.17
2018-11-05T12:48:16.915Z,78.70
2018-11-05T12:50:44.365Z,77.87
2018-11-05T12:53:11.759Z,79.87
2018-11-05T12:55:39.171Z,75.53
2018-11-05T12:58:06.628Z,80.10
2018-11-05T13:00:34.113Z,78.60
2018-11-05T13:03:01.578Z,76.60
2018-11-05T13:05:30.201Z,77.23
2018-11-05T13:07:57.674Z,80.97
2018-11-05T13:10:25.270Z,79.23
2018-11-05T13:12:52.888Z,83.90
2018-11-05T13:15:20.499Z,82.27
2018-11-05T13:17:48.252Z,83.80
2018-11-05T13:20:17.925Z,86.93
2018-11-05T13:22:45.677Z,91.07
2018-11-05T13:25:13.138Z,85.07
2018-11-05T13:27:42.060Z,90.13
2018-11-05T13:30:10.156Z,93.23
2018-11-05T13:32:37.977Z,92.93
2018-11-05T13:35:06.468Z,94.80
2018-11-05T13:37:34.064Z,94.93
2018-11-05T13:40:01.307Z,96.13
2018-11-05T13:42:28.827Z,93.13
2018-11-05T13:44:56.306Z,89.57
2018-11-05T13:47:24.513Z,91.57
2018-11-05T13:49:51.387Z,97.13
2018-11-05T13:52:18.718Z,97.83
2018-11-05T13:54:46.352Z,101.20
2018-11-05T13:57:13.669Z,97.10
2018-11-05T13:59:41.119Z,90.90
2018-11-05T14:02:08.526Z,94.87
2018-11-05T14:04:35.957Z,100.30
2018-11-05T14:07:03.410Z,94.20
2018-11-05T14:09:30.947Z,89.10
2018-11-05T14:11:58.462Z,94.87
2018-11-05T14:14:25.970Z,94.07
2018-11-05T14:16:53.374Z,92.60
2018-11-05T14:19:20.807Z,82.93
2018-11-05T14:21:48.268Z,87.20
2018-11-05T14:24:15.684Z,91.57
2018-11-05T14:26:43.103Z,86.97
2018-11-05T14:29:11.648Z,89.30
2018-11-05T14:31:38.628Z,83.47
2018-11-05T14:34:06.088Z,81.20
2018-11-05T14:36:33.554Z,79.20
2018-11-05T14:39:01.019Z,84.50
2018-11-05T14:41:28.472Z,86.00
2018-11-05T14:43:55.882Z,79.60
2018-11-05T14:46:23.278Z,83.30
2018-11-05T14:48:50.724Z,81.10
2018-11-05T14:51:18.214Z,81.27
2018-11-05T14:53:45.618Z,78.83
2018-11-05T14:56:13.022Z,71.97
2018-11-05T14:58:40.418Z,76.30
2018-11-05T15:01:07.950Z,80.00
2018-11-05T15:03:35.346Z,89.03
2018-11-05T15:06:02.784Z,78.60
2018-11-05T15:08:30.874Z,83.03
2018-11-05T15:10:58.296Z,77.07
2018-11-05T15:13:25.700Z,72.97
2018-11-05T15:15:53.128Z,76.27
2018-11-05T15:18:20.545Z,75.43
2018-11-05T15:20:47.992Z,78.17
2018-11-05T15:23:15.423Z,79.40
2018-11-05T15:25:42.932Z,74.97
2018-11-05T15:28:10.320Z,80.10
2018-11-05T15:30:37.810Z,82.17
2018-11-05T15:33:05.272Z,73.70
2018-11-05T15:35:33.687Z,77.67
2018-11-05T15:38:01.218Z,81.00
2018-11-05T15:40:28.693Z,80.93
2018-11-05T15:42:56.403Z,83.67
2018-11-05T15:45:23.840Z,90.40
2018-11-05T15:47:51.246Z,85.13
2018-11-05T15:50:22.439Z,86.47
2018-11-05T15:52:50.452Z,89.40
2018-11-05T15:55:17.557Z,84.93
2018-11-05T15:57:44.962Z,86.20
2018-11-05T16:00:14.805Z,82.67
2018-11-05T16:02:42.454Z,83.20
2018-11-05T16:05:09.879Z,87.50
2018-11-05T16:07:37.330Z,86.63
2018-11-05T16:10:06.118Z,81.00
2018-11-05T16:12:33.788Z,81.80
2018-11-05T16:15:01.333Z,80.10
2018-11-05T16:17:28.700Z,87.13
2018-11-05T16:19:56.130Z,84.63
2018-11-05T16:22:23.506Z,87.10
2018-11-05T16:24:51.015Z,94.97
2018-11-05T16:27:18.419Z,81.07
2018-11-05T16:29:46.056Z,86.40
2018-11-05T16:32:13.494Z,82.70
2018-11-05T16:34:40.990Z,86.03
2018-11-05T16:37:08.357Z,86.30
2018-11-05T16:39:45.430Z,86.93
2018-11-05T16:42:12.815Z,83.53
2018-11-05T16:44:40.221Z,83.23
2018-11-05T16:47:07.710Z,88.20
2018-11-05T16:49:35.131Z,82.77
2018-11-05T16:52:02.550Z,81.83
2018-11-05T16:54:29.959Z,78.47
2018-11-05T16:56:57.474Z,77.73
2018-11-05T16:59:24.879Z,81.80
2018-11-05T17:01:52.847Z,76.60
2018-11-05T17:04:26.259Z,73.60
2018-11-05T17:06:53.702Z,77.30
2018-11-05T17:09:21.137Z,77.30
2018-11-05T17:11:48.585Z,72.17
2018-11-05T17:14:16.027Z,76.20
2018-11-05T17:16:43.534Z,86.97
2018-11-05T17:19:11.335Z,81.10
2018-11-05T17:21:38.895Z,82.50
2018-11-05T17:24:06.332Z,84.90
2018-11-05T17:26:33.751Z,78.57
2018-11-05T17:29:01.197Z,77.03
2018-11-05T17:31:28.682Z,76.70
2018-11-05T17:33:56.115Z,68.87
2018-11-05T17:36:23.626Z,78.07
2018-11-05T17:38:51.055Z,70.70
2018-11-05T17:41:18.483Z,71.63
2018-11-05T17:43:45.876Z,73.97
2018-11-05T17:46:13.379Z,75.47
2018-11-05T17:48:40.837Z,71.90
2018-11-05T17:51:08.923Z,71.43
2018-11-05T17:53:36.319Z,74.37
2018-11-05T17:56:04.026Z,74.07
2018-11-05T17:58:31.438Z,68.60
2018-11-05T18:00:58.861Z,71.50
2018-11-05T18:03:26.260Z,64.80
2018-11-05T18:05:53.723Z,68.93
2018-11-05T18:08:21.172Z,66.93
2018-11-05T18:10:48.623Z,65.77
2018-11-05T18:13:16.046Z,66.90
2018-11-05T18:15:43.597Z,71.83
2018-11-05T18:18:10.932Z,72.80
2018-11-05T18:20:38.419Z,76.30
2018-11-05T18:23:05.833Z,68.93
2018-11-05T18:25:33.327Z,67.80
2018-11-05T18:28:00.721Z,70.10
2018-11-05T18:30:28.267Z,69.70
2018-11-05T18:32:55.779Z,71.00
2018-11-05T18:35:23.235Z,68.20
2018-11-05T18:37:51.306Z,64.43
2018-11-05T18:40:18.775Z,62.27
2018-11-05T18:42:46.198Z,61.17
2018-11-05T18:45:14.073Z,65.47
2018-11-05T18:47:41.542Z,64.50
2018-11-05T18:50:10.918Z,68.33
2018-11-05T18:52:38.335Z,60.80
2018-11-05T18:55:07.194Z,64.63
2018-11-05T18:57:35.000Z,67.13
2018-11-05T19:00:02.698Z,68.43
2018-11-05T19:02:34.318Z,68.47
2018-11-05T19:05:02.036Z,60.70
2018-11-05T19:07:29.490Z,67.97
2018-11-05T19:09:56.956Z,68.93
2018-11-05T19:12:24.432Z,68.00
2018-11-05T19:14:51.934Z,64.30
2018-11-05T19:17:19.410Z,66.83
2018-11-05T19:19:46.952Z,70.70
2018-11-05T19:22:14.415Z,69.60
2018-11-05T19:24:41.847Z,72.80
2018-11-05T19:27:09.356Z,69.53
2018-11-05T19:29:36.732Z,70.20
2018-11-05T19:32:05.267Z,73.42
2018-11-05T19:34:32.694Z,69.63
2018-11-05T19:37:00.258Z,72.53
2018-11-05T19:39:27.667Z,68.23
2018-11-05T19:41:56.696Z,72.17
2018-11-05T19:44:25.142Z,64.30
2018-11-05T19:46:53.087Z,66.80
2018-11-05T19:49:20.780Z,70.10
2018-11-05T19:51:48.266Z,70.67
2018-11-05T19:54:15.735Z,66.17
2018-11-05T19:56:43.250Z,72.70
2018-11-05T19:59:10.805Z,75.30
2018-11-05T20:01:38.251Z,70.00
2018-11-05T20:04:05.688Z,66.83
2018-11-05T20:06:33.159Z,65.57
2018-11-05T20:09:00.663Z,69.73
2018-11-05T20:11:28.162Z,67.13
2018-11-05T20:13:55.584Z,74.87
2018-11-05T20:16:23.025Z,71.47
2018-11-05T20:18:50.501Z,71.30
2018-11-05T20:21:18.346Z,76.00
2018-11-05T20:23:45.738Z,75.80
2018-11-05T20:26:13.200Z,72.57
2018-11-05T20:28:40.957Z,66.47
2018-11-05T20:31:08.438Z,70.07
2018-11-05T20:33:35.907Z,76.43
2018-11-05T20:36:03.435Z,74.40
2018-11-05T20:38:30.892Z,73.90
2018-11-05T20:40:58.367Z,72.83
2018-11-05T20:43:25.884Z,70.93
2018-11-05T20:45:53.306Z,71.87
2018-11-05T20:48:20.855Z,77.93
2018-11-05T20:50:48.332Z,74.30
2018-11-05T20:53:15.778Z,77.30
2018-11-05T20:55:43.207Z,73.83
2018-11-05T20:58:10.693Z,79.83
2018-11-05T21:00:38.102Z,73.83
2018-11-05T21:03:05.571Z,78.23
2018-11-05T21:05:33.122Z,70.10
2018-11-05T21:08:00.528Z,70.13
2018-11-05T21:10:28.028Z,74.33
2018-11-05T21:12:55.465Z,69.93
2018-11-05T21:15:23.159Z,69.93
2018-11-05T21:17:51.559Z,72.13
2018-11-05T21:20:19.020Z,72.40
2018-11-05T21:22:47.286Z,69.83
2018-11-05T21:25:14.556Z,69.20
2018-11-05T21:27:42.871Z,66.67
2018-11-05T21:30:12.316Z,67.70
2018-11-05T21:32:39.972Z,67.67
2018-11-05T21:35:09.848Z,69.10
2018-11-05T21:37:37.455Z,67.67
2018-11-05T21:40:05.863Z,67.07
2018-11-05T21:42:33.317Z,71.40
2018-11-05T21:45:00.774Z,69.00
2018-11-05T21:47:28.336Z,71.20
2018-11-05T21:49:55.871Z,66.20
2018-11-05T21:52:23.333Z,69.83
2018-11-05T21:54:50.730Z,69.03
2018-11-05T21:57:18.225Z,70.23
2018-11-05T21:59:45.650Z,71.87
2018-11-05T22:02:13.401Z,67.30
2018-11-05T22:04:40.866Z,73.07
2018-11-05T22:07:08.306Z,67.23
2018-11-05T22:09:35.742Z,69.83
2018-11-05T22:12:03.198Z,71.13
2018-11-05T22:14:30.613Z,65.67
2018-11-05T22:16:58.152Z,64.83
2018-11-05T22:19:25.531Z,67.30
2018-11-05T22:21:52.917Z,68.73
2018-11-05T22:24:20.345Z,67.53
2018-11-05T22:26:47.783Z,69.63
2018-11-05T22:29:15.228Z,66.77
2018-11-05T22:31:42.632Z,68.50
2018-11-05T22:34:10.141Z,62.80
2018-11-05T22:36:37.657Z,65.97
2018-11-05T22:39:06.647Z,65.53
2018-11-05T22:41:34.107Z,61.47
2018-11-05T22:44:04.026Z,63.67
2018-11-05T22:46:31.569Z,64.17
2018-11-05T22:48:59.011Z,62.93
2018-11-05T22:51:26.460Z,62.03
2018-11-05T22:53:53.898Z,61.20
2018-11-05T22:56:21.359Z,62.40
2018-11-05T22:58:48.814Z,63.03
2018-11-05T23:01:22.058Z,60.93
2018-11-05T23:03:49.606Z,60.30
2018-11-05T23:06:17.046Z,64.03
2018-11-05T23:08:44.567Z,60.70
2018-11-05T23:11:12.032Z,62.70
2018-11-05T23:13:39.468Z,62.70
2018-11-05T23:16:06.951Z,59.60
2018-11-05T23:18:34.383Z,63.17
2018-11-05T23:21:01.823Z,61.37
2018-11-05T23:23:29.322Z,57.90
2018-11-05T23:25:56.797Z,56.40
2018-11-05T23:28:24.214Z,59.33
2018-11-05T23:30:51.668Z,60.77
2018-11-05T23:33:19.114Z,61.27
2018-11-05T23:35:46.549Z,59.50
2018-11-05T23:38:13.929Z,59.60
2018-11-05T23:40:41.448Z,57.70
2018-11-05T23:43:08.921Z,54.87
2018-11-05T23:45:36.627Z,52.03
2018-11-05T23:48:04.355Z,60.30
2018-11-05T23:50:32.007Z,52.40
2018-11-05T23:52:59.577Z,58.87
2018-11-05T23:55:27.028Z,56.63
2018-11-05T23:57:54.480Z,54.47
